createdAt,value
2023-03-04T00:01:14.561Z,41.37
2023-03-04T00:03:42.766Z,43.37
2023-03-04T00:06:10.705Z,40.53
2023-03-04T00:08:38.611Z,35.80
2023-03-04T00:11:06.357Z,40.80
2023-03-04T00:13:34.307Z,39.83
2023-03-04T00:16:01.949Z,38.97
2023-03-04T00:18:29.950Z,40.60
2023-03-04T00:20:57.677Z,36.50
2023-03-04T00:23:25.791Z,36.07
2023-03-04T00:25:53.462Z,37.37
2023-03-04T00:28:21.307Z,46.30
2023-03-04T00:30:49.017Z,34.00
2023-03-04T00:33:17.422Z,35.57
2023-03-04T00:35:45.304Z,34.93
2023-03-04T00:38:13.079Z,35.73
2023-03-04T00:40:40.773Z,35.63
2023-03-04T00:43:08.758Z,41.00
2023-03-04T00:45:36.609Z,35.63
2023-03-04T00:48:04.744Z,37.13
2023-03-04T00:50:32.012Z,38.43
2023-03-04T00:52:59.931Z,41.10
2023-03-04T00:55:27.538Z,39.67
2023-03-04T00:57:58.464Z,39.30
2023-03-04T01:00:26.646Z,38.57
2023-03-04T01:02:54.667Z,41.73
2023-03-04T01:05:22.550Z,44.13
2023-03-04T01:07:50.537Z,38.37
2023-03-04T01:10:19.340Z,41.23
2023-03-04T01:12:47.442Z,38.13
2023-03-04T01:15:15.412Z,38.37
2023-03-04T01:17:43.371Z,36.03
2023-03-04T01:20:11.302Z,37.10
2023-03-04T01:22:39.278Z,36.03
2023-03-04T01:25:07.186Z,31.10
2023-03-04T01:27:35.259Z,34.53
2023-03-04T01:30:03.067Z,36.83
2023-03-04T01:32:31.035Z,34.33
2023-03-04T01:34:58.762Z,32.03
2023-03-04T01:37:26.844Z,30.90
2023-03-04T01:39:54.613Z,42.40
2023-03-04T01:42:24.691Z,36.03
2023-03-04T01:44:52.747Z,35.43
2023-03-04T01:47:24.151Z,34.50
2023-03-04T01:49:55.121Z,39.37
2023-03-04T01:52:23.607Z,35.00
2023-03-04T01:54:51.642Z,37.03
2023-03-04T01:57:22.004Z,36.33
2023-03-04T02:00:19.315Z,33.73
2023-03-04T02:02:49.803Z,35.90
2023-03-04T02:05:18.255Z,35.77
2023-03-04T02:07:46.208Z,36.70
2023-03-04T02:10:13.921Z,32.83
2023-03-04T02:12:42.468Z,37.87
2023-03-04T02:15:10.368Z,36.23
2023-03-04T02:17:38.316Z,32.80
2023-03-04T02:20:24.373Z,35.43
2023-03-04T02:23:04.772Z,34.13
2023-03-04T02:25:39.564Z,32.80
2023-03-04T02:28:07.565Z,30.60
2023-03-04T02:30:35.295Z,32.40
2023-03-04T02:33:03.255Z,31.67
2023-03-04T02:35:31.349Z,29.90
2023-03-04T02:37:59.269Z,31.70
2023-03-04T02:40:34.463Z,30.90
2023-03-04T02:43:02.659Z,28.57
2023-03-04T02:45:39.882Z,30.73
2023-03-04T02:48:09.757Z,34.23
2023-03-04T02:50:42.117Z,32.23
2023-03-04T02:53:10.068Z,29.27
2023-03-04T02:55:37.744Z,36.03
2023-03-04T02:58:05.950Z,31.83
2023-03-04T03:00:33.649Z,26.87
2023-03-04T03:03:01.633Z,31.17
2023-03-04T03:05:32.446Z,30.13
2023-03-04T03:08:01.115Z,31.87
2023-03-04T03:10:29.163Z,30.90
2023-03-04T03:12:57.492Z,30.60
2023-03-04T03:15:25.276Z,33.97
2023-03-04T03:17:53.180Z,33.03
2023-03-04T03:20:21.242Z,25.00
2023-03-04T03:22:49.202Z,22.13
2023-03-04T03:25:17.198Z,29.03
2023-03-04T03:27:45.088Z,27.47
2023-03-04T03:30:15.576Z,29.63
2023-03-04T03:32:43.513Z,31.03
2023-03-04T03:35:11.252Z,29.43
2023-03-04T03:37:39.200Z,27.80
2023-03-04T03:40:07.117Z,26.37
2023-03-04T03:42:35.204Z,27.87
2023-03-04T03:45:02.888Z,29.53
2023-03-04T03:47:30.836Z,25.00
2023-03-04T03:49:58.450Z,27.30
2023-03-04T03:52:26.385Z,31.27
2023-03-04T03:54:54.011Z,28.33
2023-03-04T03:57:21.925Z,25.50
2023-03-04T03:59:49.527Z,30.07
2023-03-04T04:02:17.495Z,38.63
2023-03-04T04:04:45.293Z,38.43
2023-03-04T04:07:13.148Z,27.03
2023-03-04T04:09:40.829Z,32.60
2023-03-04T04:12:08.955Z,35.17
2023-03-04T04:14:36.842Z,28.33
2023-03-04T04:17:04.815Z,33.67
2023-03-04T04:19:32.561Z,36.47
2023-03-04T04:22:00.405Z,33.70
2023-03-04T04:24:28.088Z,29.50
2023-03-04T04:26:56.082Z,36.63
2023-03-04T04:29:23.904Z,31.77
2023-03-04T04:31:52.013Z,34.73
2023-03-04T04:34:19.783Z,35.17
2023-03-04T04:36:47.609Z,27.10
2023-03-04T04:39:15.207Z,35.07
2023-03-04T04:41:44.267Z,28.10
2023-03-04T04:44:12.257Z,28.23
2023-03-04T04:46:40.700Z,26.20
2023-03-04T04:49:08.678Z,33.83
2023-03-04T04:51:38.515Z,28.13
2023-03-04T04:54:06.371Z,24.80
2023-03-04T04:56:34.443Z,20.33
2023-03-04T04:59:04.911Z,25.87
2023-03-04T05:01:33.012Z,28.57
2023-03-04T05:04:00.646Z,25.40
2023-03-04T05:06:28.657Z,32.00
2023-03-04T05:08:56.380Z,27.87
2023-03-04T05:11:24.385Z,30.67
2023-03-04T05:13:52.155Z,21.17
2023-03-04T05:16:20.281Z,21.80
2023-03-04T05:18:48.156Z,29.57
2023-03-04T05:21:16.267Z,24.57
2023-03-04T05:23:44.151Z,26.40
2023-03-04T05:26:15.033Z,25.73
2023-03-04T05:28:42.729Z,26.43
2023-03-04T05:31:10.605Z,25.50
2023-03-04T05:33:38.560Z,28.30
2023-03-04T05:36:07.750Z,25.80
2023-03-04T05:38:35.726Z,23.93
2023-03-04T05:41:08.150Z,23.33
2023-03-04T05:43:36.884Z,26.90
2023-03-04T05:46:05.043Z,28.03
2023-03-04T05:48:32.803Z,30.60
2023-03-04T05:51:01.937Z,25.07
2023-03-04T05:53:29.553Z,21.97
2023-03-04T05:56:01.469Z,22.17
2023-03-04T05:58:29.868Z,25.70
2023-03-04T06:01:01.091Z,27.03
2023-03-04T06:03:28.757Z,27.83
2023-03-04T06:05:57.024Z,27.03
2023-03-04T06:08:24.740Z,28.40
2023-03-04T06:10:54.762Z,29.47
2023-03-04T06:13:22.623Z,22.77
2023-03-04T06:15:55.055Z,22.27
2023-03-04T06:18:23.147Z,30.20
2023-03-04T06:20:51.540Z,29.77
2023-03-04T06:23:19.151Z,24.70
2023-03-04T06:25:47.124Z,20.13
2023-03-04T06:28:14.694Z,23.67
2023-03-04T06:30:42.557Z,32.07
2023-03-04T06:33:10.130Z,28.53
2023-03-04T06:35:38.162Z,24.87
2023-03-04T06:38:05.811Z,22.07
2023-03-04T06:40:33.799Z,28.40
2023-03-04T06:43:01.626Z,30.47
2023-03-04T06:45:29.735Z,24.77
2023-03-04T06:47:57.706Z,29.27
2023-03-04T06:50:25.914Z,28.07
2023-03-04T06:52:53.661Z,24.60
2023-03-04T06:55:21.532Z,28.20
2023-03-04T06:57:49.220Z,24.77
2023-03-04T07:00:17.509Z,22.07
2023-03-04T07:02:45.259Z,30.57
2023-03-04T07:05:13.849Z,21.10
2023-03-04T07:07:42.189Z,27.37
2023-03-04T07:10:10.692Z,31.00
2023-03-04T07:12:38.364Z,25.93
2023-03-04T07:15:06.685Z,25.77
2023-03-04T07:17:35.003Z,24.63
2023-03-04T07:20:03.155Z,20.33
2023-03-04T07:22:30.990Z,28.50
2023-03-04T07:24:58.993Z,29.50
2023-03-04T07:27:26.980Z,26.23
2023-03-04T07:29:54.619Z,28.77
2023-03-04T07:32:22.281Z,21.97
2023-03-04T07:34:50.462Z,26.23
2023-03-04T07:37:18.250Z,22.07
2023-03-04T07:39:46.162Z,29.20
2023-03-04T07:42:14.192Z,30.10
2023-03-04T07:44:44.501Z,35.03
2023-03-04T07:47:13.201Z,25.47
2023-03-04T07:49:41.312Z,27.27
2023-03-04T07:52:09.581Z,23.93
2023-03-04T07:54:37.613Z,24.40
2023-03-04T07:57:05.316Z,24.40
2023-03-04T07:59:33.318Z,26.63
2023-03-04T08:02:00.987Z,32.53
2023-03-04T08:04:29.019Z,22.87
2023-03-04T08:06:56.746Z,22.93
2023-03-04T08:09:24.965Z,40.20
2023-03-04T08:11:52.712Z,35.17
2023-03-04T08:14:20.881Z,28.30
2023-03-04T08:16:48.530Z,24.10
2023-03-04T08:19:16.653Z,24.37
2023-03-04T08:21:44.372Z,24.47
2023-03-04T08:24:12.545Z,31.93
2023-03-04T08:26:43.351Z,29.13
2023-03-04T08:29:21.704Z,28.57
2023-03-04T08:31:50.629Z,27.70
2023-03-04T08:34:20.065Z,25.33
2023-03-04T08:36:47.928Z,20.87
2023-03-04T08:39:18.137Z,26.47
2023-03-04T08:41:46.527Z,27.93
2023-03-04T08:44:15.098Z,26.43
2023-03-04T08:46:43.730Z,30.70
2023-03-04T08:49:13.126Z,25.37
2023-03-04T08:51:43.108Z,22.73
2023-03-04T08:54:11.278Z,24.37
2023-03-04T08:56:39.176Z,28.57
2023-03-04T08:59:07.334Z,31.70
2023-03-04T09:01:35.393Z,22.77
2023-03-04T09:04:03.526Z,28.00
2023-03-04T09:06:31.525Z,21.37
2023-03-04T09:08:59.729Z,21.50
2023-03-04T09:11:27.582Z,23.10
2023-03-04T09:13:55.710Z,29.93
2023-03-04T09:16:23.640Z,23.17
2023-03-04T09:18:51.916Z,26.90
2023-03-04T09:21:20.424Z,27.33
2023-03-04T09:23:48.754Z,56.60
2023-03-04T09:26:22.693Z,26.40
2023-03-04T09:28:52.806Z,25.90
2023-03-04T09:31:20.933Z,31.97
2023-03-04T09:33:49.603Z,49.93
2023-03-04T09:36:17.772Z,27.27
2023-03-04T09:38:45.989Z,26.80
2023-03-04T09:41:27.042Z,35.83
2023-03-04T09:43:55.649Z,33.80
2023-03-04T09:46:39.564Z,24.63
2023-03-04T09:49:08.063Z,40.73
2023-03-04T09:52:01.757Z,42.53
2023-03-04T09:55:08.122Z,37.63
2023-03-04T09:57:57.537Z,31.87
2023-03-04T10:00:34.269Z,25.37
2023-03-04T10:03:10.480Z,23.57
2023-03-04T10:05:49.355Z,27.07
2023-03-04T10:08:32.264Z,23.27
2023-03-04T10:11:01.973Z,21.73
2023-03-04T10:13:45.313Z,18.43
2023-03-04T10:16:21.748Z,26.43
2023-03-04T10:18:59.458Z,29.23
2023-03-04T10:21:41.159Z,20.17
2023-03-04T10:24:21.723Z,28.93
2023-03-04T10:26:55.070Z,27.37
2023-03-04T10:29:24.770Z,27.50
2023-03-04T10:31:57.245Z,34.63
2023-03-04T10:34:26.628Z,26.33
2023-03-04T10:36:57.100Z,10.87
2023-03-04T10:39:34.008Z,13.13
2023-03-04T10:42:03.752Z,11.27
2023-03-04T10:44:35.692Z,22.57
2023-03-04T10:47:11.576Z,12.30
2023-03-04T10:50:00.146Z,26.53
2023-03-04T10:52:47.177Z,34.80
2023-03-04T10:55:22.575Z,43.77
2023-03-04T10:58:16.402Z,43.07
2023-03-04T11:00:45.609Z,27.87
2023-03-04T11:03:31.707Z,29.73
2023-03-04T11:06:14.356Z,42.23
2023-03-04T11:08:43.194Z,34.33
2023-03-04T11:11:45.243Z,28.03
2023-03-04T11:14:25.480Z,31.20
2023-03-04T11:16:59.213Z,24.77
2023-03-04T11:19:37.676Z,24.20
2023-03-04T11:22:05.994Z,33.40
2023-03-04T11:24:37.194Z,17.00
2023-03-04T11:27:18.653Z,19.60
2023-03-04T11:30:20.516Z,28.90
2023-03-04T11:32:54.199Z,13.80
2023-03-04T11:35:33.637Z,11.37
2023-03-04T11:38:18.536Z,13.90
2023-03-04T11:40:54.146Z,11.33
2023-03-04T11:43:31.477Z,11.17
2023-03-04T11:46:03.871Z,12.13
2023-03-04T11:48:54.583Z,10.20
2023-03-04T11:51:50.026Z,18.27
2023-03-04T11:54:30.191Z,10.90
2023-03-04T11:57:06.260Z,8.27
2023-03-04T11:59:45.887Z,9.10
2023-03-04T12:02:30.466Z,11.47
2023-03-04T12:05:19.768Z,14.30
2023-03-04T12:08:07.687Z,10.40
2023-03-04T12:10:58.639Z,7.20
2023-03-04T12:13:45.741Z,9.37
2023-03-04T12:16:38.856Z,9.27
2023-03-04T12:19:07.180Z,13.53
2023-03-04T12:21:35.171Z,11.47
2023-03-04T12:24:18.250Z,10.80
2023-03-04T12:27:12.024Z,10.33
2023-03-04T12:29:45.788Z,9.73
2023-03-04T12:32:44.250Z,16.37
2023-03-04T12:35:39.938Z,5.30
2023-03-04T12:38:35.177Z,8.63
2023-03-04T12:41:28.506Z,9.23
2023-03-04T12:43:59.050Z,19.23
2023-03-04T12:46:38.679Z,10.68
2023-03-04T12:49:25.211Z,12.85
2023-03-04T12:51:52.974Z,16.92
2023-03-04T12:54:45.976Z,15.38
2023-03-04T12:57:18.097Z,18.35
2023-03-04T13:00:09.375Z,11.23
2023-03-04T13:02:55.264Z,16.45
2023-03-04T13:05:50.890Z,20.83
2023-03-04T13:08:40.163Z,27.42
2023-03-04T13:11:26.930Z,11.98
2023-03-04T13:14:04.792Z,12.07
2023-03-04T13:16:46.614Z,13.55
2023-03-04T13:20:05.710Z,11.75
2023-03-04T13:22:34.355Z,12.38
2023-03-04T13:25:37.853Z,12.15
2023-03-04T13:28:11.948Z,56.67
2023-03-04T13:30:41.281Z,28.67
2023-03-04T13:33:14.237Z,19.38
2023-03-04T13:36:01.382Z,7.82
2023-03-04T13:38:33.969Z,12.63
2023-03-04T13:41:09.009Z,3.80
2023-03-04T13:43:45.013Z,7.68
2023-03-04T13:46:20.965Z,7.10
2023-03-04T13:48:51.883Z,16.25
2023-03-04T13:51:42.455Z,11.73
2023-03-04T13:54:16.134Z,46.53
2023-03-04T13:56:50.505Z,22.35
2023-03-04T13:59:20.882Z,12.77
2023-03-04T14:02:15.595Z,58.80
2023-03-04T14:04:46.416Z,13.05
2023-03-04T14:07:35.544Z,9.20
2023-03-04T14:10:12.721Z,15.13
2023-03-04T14:12:52.080Z,11.23
2023-03-04T14:15:29.127Z,11.50
2023-03-04T14:18:02.827Z,11.18
2023-03-04T14:20:37.553Z,12.68
2023-03-04T14:23:29.113Z,7.25
2023-03-04T14:26:15.720Z,5.95
2023-03-04T14:28:49.676Z,7.95
2023-03-04T14:31:20.545Z,8.65
2023-03-04T14:33:51.603Z,23.42
2023-03-04T14:36:22.302Z,17.33
2023-03-04T14:38:59.131Z,22.73
2023-03-04T14:41:39.240Z,22.17
2023-03-04T14:44:12.411Z,13.77
2023-03-04T14:47:06.025Z,18.27
2023-03-04T14:49:37.871Z,11.03
2023-03-04T14:52:07.319Z,15.10
2023-03-04T14:54:38.938Z,14.87
2023-03-04T14:57:30.018Z,15.10
2023-03-04T14:59:58.558Z,10.00
2023-03-04T15:03:02.748Z,7.80
2023-03-04T15:05:33.808Z,14.20
2023-03-04T15:08:18.820Z,8.90
2023-03-04T15:10:55.918Z,17.13
2023-03-04T15:13:42.042Z,28.47
2023-03-04T15:16:11.056Z,16.17
2023-03-04T15:18:39.122Z,22.57
2023-03-04T15:21:37.856Z,50.00
2023-03-04T15:24:09.003Z,24.27
2023-03-04T15:26:41.378Z,28.83
2023-03-04T15:29:17.820Z,14.17
2023-03-04T15:31:50.202Z,14.80
2023-03-04T15:34:20.550Z,26.67
2023-03-04T15:36:50.996Z,30.47
2023-03-04T15:39:20.050Z,19.10
2023-03-04T15:41:49.222Z,27.57
2023-03-04T15:44:16.684Z,12.40
2023-03-04T15:46:44.604Z,9.70
2023-03-04T15:49:12.350Z,18.80
2023-03-04T15:51:40.346Z,23.43
2023-03-04T15:54:14.589Z,13.87
2023-03-04T15:56:43.405Z,7.77
2023-03-04T15:59:13.839Z,8.97
2023-03-04T16:01:42.315Z,8.20
2023-03-04T16:04:17.493Z,11.77
2023-03-04T16:06:47.812Z,12.60
2023-03-04T16:09:19.848Z,8.03
2023-03-04T16:11:48.385Z,9.63
2023-03-04T16:14:16.835Z,21.27
2023-03-04T16:16:47.081Z,18.67
2023-03-04T16:19:14.922Z,13.27
2023-03-04T16:21:43.188Z,16.43
2023-03-04T16:24:19.245Z,17.30
2023-03-04T16:26:47.989Z,17.40
2023-03-04T16:29:17.278Z,14.40
2023-03-04T16:31:45.586Z,27.57
2023-03-04T16:34:13.609Z,27.43
2023-03-04T16:36:42.105Z,18.70
2023-03-04T16:39:20.042Z,27.40
2023-03-04T16:41:48.259Z,30.70
2023-03-04T16:44:16.169Z,43.40
2023-03-04T16:46:44.709Z,35.73
2023-03-04T16:49:12.640Z,16.23
2023-03-04T16:51:48.632Z,10.30
2023-03-04T16:54:22.636Z,14.10
2023-03-04T16:56:50.560Z,8.67
2023-03-04T16:59:18.445Z,17.27
2023-03-04T17:01:46.386Z,15.33
2023-03-04T17:04:14.090Z,7.00
2023-03-04T17:06:41.884Z,12.30
2023-03-04T17:09:09.856Z,8.83
2023-03-04T17:11:38.281Z,11.43
2023-03-04T17:14:05.699Z,7.40
2023-03-04T17:16:33.525Z,7.93
2023-03-04T17:19:01.067Z,20.83
2023-03-04T17:21:28.768Z,22.67
2023-03-04T17:23:56.214Z,49.60
2023-03-04T17:26:23.897Z,24.50
2023-03-04T17:28:51.775Z,14.30
2023-03-04T17:31:20.823Z,46.70
2023-03-04T17:33:48.961Z,32.33
2023-03-04T17:36:20.781Z,16.17
2023-03-04T17:38:49.643Z,14.23
2023-03-04T17:41:19.028Z,26.07
2023-03-04T17:43:51.476Z,30.53
2023-03-04T17:46:21.990Z,21.00
2023-03-04T17:48:50.389Z,59.90
2023-03-04T17:51:18.604Z,83.53
2023-03-04T17:53:46.548Z,40.17
2023-03-04T17:56:15.057Z,115.47
2023-03-04T17:58:43.546Z,167.87
2023-03-04T18:01:20.425Z,64.60
2023-03-04T18:03:49.131Z,41.63
2023-03-04T18:06:17.413Z,26.23
2023-03-04T18:08:45.778Z,34.27
2023-03-04T18:11:13.421Z,53.10
2023-03-04T18:13:42.272Z,35.40
2023-03-04T18:16:12.072Z,37.57
2023-03-04T18:18:39.788Z,26.20
2023-03-04T18:21:07.884Z,21.07
2023-03-04T18:23:35.936Z,25.77
2023-03-04T18:26:04.632Z,22.13
2023-03-04T18:28:32.496Z,19.27
2023-03-04T18:31:01.198Z,22.83
2023-03-04T18:33:29.885Z,17.27
2023-03-04T18:35:59.763Z,18.70
2023-03-04T18:38:28.058Z,23.23
2023-03-04T18:41:07.207Z,27.83
2023-03-04T18:43:36.020Z,31.50
2023-03-04T18:46:04.000Z,43.50
2023-03-04T18:48:34.544Z,96.77
2023-03-04T18:51:02.723Z,28.53
2023-03-04T18:53:30.874Z,34.97
2023-03-04T18:56:09.897Z,25.07
2023-03-04T18:58:40.150Z,25.97
2023-03-04T19:01:12.199Z,59.37
2023-03-04T19:03:41.829Z,127.47
2023-03-04T19:06:10.173Z,124.90
2023-03-04T19:08:37.950Z,104.03
2023-03-04T19:11:06.484Z,80.67
2023-03-04T19:13:34.821Z,93.63
2023-03-04T19:16:02.866Z,82.70
2023-03-04T19:18:30.789Z,70.00
2023-03-04T19:21:01.218Z,40.37
2023-03-04T19:23:31.409Z,29.50
2023-03-04T19:25:59.524Z,21.93
2023-03-04T19:28:28.067Z,24.67
2023-03-04T19:31:00.730Z,27.23
2023-03-04T19:33:30.908Z,38.50
2023-03-04T19:35:58.668Z,25.83
2023-03-04T19:38:26.979Z,31.70
2023-03-04T19:40:54.658Z,99.87
2023-03-04T19:43:22.867Z,194.17
2023-03-04T19:45:55.651Z,163.40
2023-03-04T19:48:24.383Z,75.37
2023-03-04T19:50:52.103Z,54.30
2023-03-04T19:53:20.565Z,36.93
2023-03-04T19:55:53.776Z,32.90
2023-03-04T19:58:22.301Z,29.17
2023-03-04T20:00:52.216Z,22.13
2023-03-04T20:03:20.467Z,20.50
2023-03-04T20:05:48.411Z,11.80
2023-03-04T20:08:16.666Z,15.57
2023-03-04T20:10:45.011Z,14.17
2023-03-04T20:13:13.209Z,12.10
2023-03-04T20:15:43.301Z,13.00
2023-03-04T20:18:12.012Z,12.90
2023-03-04T20:20:40.618Z,14.70
2023-03-04T20:23:09.645Z,14.77
2023-03-04T20:25:37.235Z,16.53
2023-03-04T20:28:05.725Z,20.67
2023-03-04T20:30:36.128Z,19.07
2023-03-04T20:33:04.689Z,30.40
2023-03-04T20:35:33.442Z,28.60
2023-03-04T20:38:02.566Z,20.50
2023-03-04T20:40:30.481Z,18.33
2023-03-04T20:42:58.954Z,13.50
2023-03-04T20:45:26.958Z,11.90
2023-03-04T20:47:55.499Z,15.53
2023-03-04T20:50:23.557Z,18.73
2023-03-04T20:52:51.662Z,17.27
2023-03-04T20:55:19.783Z,16.63
2023-03-04T20:57:49.836Z,12.97
2023-03-04T21:00:17.377Z,17.33
2023-03-04T21:02:45.737Z,15.77
2023-03-04T21:05:13.892Z,8.60
2023-03-04T21:07:42.228Z,12.00
2023-03-04T21:10:10.976Z,9.93
2023-03-04T21:12:39.294Z,11.03
2023-03-04T21:15:07.518Z,17.33
2023-03-04T21:17:35.793Z,13.10
2023-03-04T21:20:04.093Z,12.37
2023-03-04T21:22:32.352Z,12.87
2023-03-04T21:25:00.289Z,12.77
2023-03-04T21:27:28.720Z,13.07
2023-03-04T21:29:57.330Z,12.93
2023-03-04T21:32:27.122Z,16.93
2023-03-04T21:34:56.007Z,15.47
2023-03-04T21:37:25.553Z,16.20
2023-03-04T21:39:54.588Z,17.97
2023-03-04T21:42:22.861Z,20.87
2023-03-04T21:44:51.766Z,18.47
2023-03-04T21:47:21.070Z,15.93
2023-03-04T21:49:48.818Z,16.53
2023-03-04T21:52:18.518Z,14.93
2023-03-04T21:54:47.908Z,18.83
2023-03-04T21:57:16.298Z,16.47
2023-03-04T21:59:44.044Z,18.03
2023-03-04T22:02:18.280Z,17.80
2023-03-04T22:04:47.141Z,12.37
2023-03-04T22:07:15.350Z,13.00
2023-03-04T22:09:43.348Z,14.00
2023-03-04T22:12:12.348Z,13.80
2023-03-04T22:14:40.149Z,17.97
2023-03-04T22:17:08.558Z,18.43
2023-03-04T22:19:37.632Z,21.03
2023-03-04T22:22:06.657Z,20.73
2023-03-04T22:24:34.781Z,16.23
2023-03-04T22:27:02.934Z,19.47
2023-03-04T22:29:31.050Z,16.27
2023-03-04T22:31:59.400Z,18.50
2023-03-04T22:34:27.317Z,19.70
2023-03-04T22:36:56.199Z,18.70
2023-03-04T22:39:24.162Z,19.20
2023-03-04T22:41:52.476Z,19.40
2023-03-04T22:44:20.347Z,27.70
2023-03-04T22:46:48.529Z,22.37
2023-03-04T22:49:16.272Z,14.30
2023-03-04T22:51:44.954Z,19.97
2023-03-04T22:54:17.129Z,22.23
2023-03-04T22:56:45.509Z,18.20
2023-03-04T22:59:13.859Z,17.13
2023-03-04T23:01:42.560Z,17.47
2023-03-04T23:04:10.654Z,16.40
2023-03-04T23:06:38.715Z,14.83
2023-03-04T23:09:06.943Z,15.07
2023-03-04T23:11:36.201Z,13.20
2023-03-04T23:14:07.550Z,19.37
2023-03-04T23:16:39.600Z,16.43
2023-03-04T23:19:08.337Z,15.80
2023-03-04T23:21:37.849Z,20.40
2023-03-04T23:24:07.533Z,24.37
2023-03-04T23:26:38.902Z,17.90
2023-03-04T23:29:08.145Z,19.23
2023-03-04T23:31:36.497Z,24.43
2023-03-04T23:34:05.195Z,19.87
2023-03-04T23:36:35.612Z,15.57
2023-03-04T23:39:03.809Z,13.37
2023-03-04T23:41:33.123Z,11.67
2023-03-04T23:44:01.669Z,12.07
2023-03-04T23:46:29.949Z,15.03
2023-03-04T23:48:58.082Z,12.37
2023-03-04T23:51:27.266Z,11.90
2023-03-04T23:53:55.407Z,12.07
2023-03-04T23:56:24.826Z,16.30
2023-03-04T23:58:53.027Z,17.03
